Station: Territory Grape Farm  

  Atmospheric Gas Attenuation - ITU Rec 676-11   ----------------- dB/100km -----------------
Date Time Temp RH % AH g/m3 Dew Point Wind Direction Speed kph Gust kph Barometer mB Rainfall Since 9am 24GHz 47GHz 76GHz 122GHz 134GHz 241GHz
03/05 02:00 17.9 71 10.84 12.6 6 7 1013.8 0 24.1 28.3 46.7 122.9 122.5 423.4
03/05 01:50 17.9 70 10.69 12.5 7 7 1013.9 0 23.8 28.1 46.1 121.2 120.5 416.4
03/05 01:40 17.9 70 10.69 12.5 6 6 1013.8 0 23.8 28.1 46.1 121.2 120.5 416.3
03/05 01:30 17.9 71 10.84 12.6 11 15 1013.8 0 24.1 28.3 46.7 122.9 122.5 423.4
03/05 01:20 16.6 78 11.02 12.7 9 11 1013.7 0 24.6 29.1 48.2 126.9 127.1 439.2
03/05 01:10 16.1 76 10.42 12 0 0 1013.7 0 23.4 28.2 46.0 121.0 119.6 413.1
03/05 01:00 16.2 76 10.48 12 0 2 1013.7 0 23.5 28.3 46.2 121.5 120.3 415.4
03/05 00:50 17 73 10.56 12.1 2 4 1013.7 0 23.6 28.1 46.1 121.2 120.1 415.0
03/05 00:40 17.6 72 10.8 12.5 4 4 1013.8 0 24.1 28.4 46.7 122.9 122.5 423.1
03/05 00:30 17.9 72 10.99 12.8 6 7 1013.9 0 24.5 28.6 47.3 124.5 124.6 430.5
03/05 00:20 18 70 10.75 12.6 6 6 1014 0 24.0 28.2 46.3 121.8 121.2 418.7
03/05 00:10 18 71 10.9 12.8 6 6 1014 0 24.3 28.4 46.9 123.4 123.2 425.7
03/05 00:00 17.7 73 11.01 12.8 4 6 1014 0 24.5 28.7 47.5 125.1 125.2 432.6
02/05 23:50 17.6 73 10.95 12.7 2 4 1014.1 0 24.4 28.6 47.3 124.6 124.5 430.3
02/05 23:40 17.5 72 10.73 12.4 2 4 1014.1 0 23.9 28.3 46.5 122.3 121.7 420.5
02/05 23:30 18.7 68 10.89 12.7 2 4 1014.2 0 24.2 28.2 46.4 122.2 122.0 421.6
02/05 23:20 19.2 66 10.88 12.7 6 6 1014.2 0 24.2 28.0 46.1 121.3 121.0 418.4
02/05 23:10 19.2 66 10.88 12.7 4 4 1014.2 0 24.2 28.0 46.1 121.3 121.0 418.4
02/05 23:00 19.3 66 10.95 12.8 4 4 1014.2 0 24.3 28.1 46.3 121.9 121.8 421.1
02/05 22:50 19.4 64 10.68 12.6 4 4 1014.2 0 23.7 27.6 45.2 118.9 118.1 408.1
02/05 22:40 19.6 65 10.97 12.8 4 4 1014.4 0 24.3 28.0 46.2 121.7 121.6 420.5
02/05 22:30 19.7 64 10.87 12.7 4 4 1014.4 0 24.1 27.8 45.8 120.5 120.2 415.4
02/05 22:20 19.8 65 11.1 13.2 4 4 1014.4 0 24.6 28.2 46.6 122.8 123.0 425.4
02/05 22:10 20 63 10.89 12.7 4 6 1014.4 0 24.1 27.8 45.7 120.2 120.0 414.7
02/05 22:00 20.3 61 10.73 12.5 6 7 1014.2 0 23.8 27.4 44.9 118.1 117.4 405.7
02/05 21:50 20.3 61 10.73 12.5 6 6 1014.2 0 23.8 27.4 44.9 118.1 117.4 405.7
02/05 21:40 20.8 58 10.5 12.2 6 6 1014.1 0 23.3 26.9 43.7 114.9 113.7 392.8
02/05 21:30 20.7 60 10.8 12.7 6 6 1014.4 0 23.9 27.4 44.9 118.2 117.7 406.9
02/05 21:20 20.9 60 10.93 12.8 4 4 1014.4 0 24.2 27.6 45.3 119.3 119.1 411.8
02/05 21:10 21 58 10.62 12.6 6 6 1014.5 0 23.5 27.0 44.1 115.9 115.0 397.3
02/05 21:00 21.2 58 10.75 12.6 4 6 1014.2 0 23.8 27.2 44.4 116.9 116.3 402.1
02/05 20:50 21.6 57 10.81 12.7 6 6 1014.1 0 23.9 27.1 44.5 117.0 116.5 402.7
02/05 20:40 21.5 57 10.75 12.6 6 7 1014 0 23.7 27.1 44.3 116.5 115.8 400.5
02/05 20:30 21.8 58 11.13 13.2 7 7 1013.9 0 24.5 27.6 45.6 120.0 120.3 416.0
02/05 20:20 21.6 57 10.81 12.7 6 6 1013.8 0 23.9 27.1 44.4 116.9 116.4 402.6
02/05 20:10 21.5 57 10.75 12.6 9 9 1013.7 0 23.8 27.1 44.3 116.4 115.8 400.4
02/05 20:00 21.5 57 10.75 12.6 9 11 1013.6 0 23.8 27.1 44.2 116.4 115.8 400.3
02/05 19:50 21.8 54 10.36 12.3 9 9 1013.5 0 22.9 26.4 42.6 112.0 110.4 381.5
02/05 19:40 22.4 54 10.72 12.6 9 9 1013.4 0 23.6 26.7 43.6 114.8 114.1 394.4
02/05 19:30 22.8 52 10.57 12.4 7 7 1013.3 0 23.3 26.4 42.8 112.7 111.6 385.9
02/05 19:20 23.6 48 10.21 12.2 6 6 1013.2 0 22.5 25.6 41.1 108.0 106.0 366.5
02/05 19:10 24 48 10.44 12.3 6 6 1013.1 0 23.0 25.8 41.7 109.7 108.3 374.5
02/05 19:00 24.5 48 10.74 12.8 6 7 1013 0 23.6 26.1 42.6 112.0 111.3 384.9
02/05 18:50 24.6 46 10.35 12.5 6 6 1012.9 0 22.7 25.5 41.1 108.0 106.4 367.8
02/05 18:40 25.1 45 10.42 12.6 6 6 1012.9 0 22.9 25.5 41.1 108.0 106.6 368.5
02/05 18:30 25.1 46 10.65 12.7 7 9 1012.9 0 23.3 25.8 41.9 110.2 109.3 378.2
02/05 18:20 25.4 45 10.59 12.6 7 7 1012.9 0 23.2 25.6 41.5 109.2 108.2 374.2
02/05 18:10 25.6 43 10.24 12.4 7 7 1012.8 0 22.5 25.1 40.1 105.6 103.7 358.6
02/05 18:00 26.2 42 10.34 12.3 7 9 1012.6 0 22.6 25.0 40.2 105.7 104.1 360.0
02/05 17:50 27.4 39 10.26 12.2 6 6 1012.6 0 22.4 24.6 39.3 103.4 101.6 351.5
02/05 17:40 27.9 37 10.01 12.2 7 7 1012.4 0 21.9 24.1 38.2 100.4 98.1 339.2
02/05 17:30 28.4 36 10.01 11.9 9 13 1012.4 0 21.8 24.0 38.0 99.8 97.5 337.1
02/05 17:20 28.4 36 10.01 11.9 11 13 1012.3 0 21.8 24.0 38.0 99.8 97.5 337.1
02/05 17:10 29.4 31 9.1 10.9 11 15 1012.2 0 19.9 22.5 34.5 90.4 86.2 297.7
02/05 17:00 30.2 32 9.81 11.7 11 19 1012.3 0 21.3 23.2 36.5 95.9 93.1 322.0
02/05 16:50 30 31 9.4 11 11 13 1012.3 0 20.5 22.7 35.2 92.4 88.9 307.0
02/05 16:40 30.4 29 8.99 10.8 15 17 1012.3 0 19.6 22.1 33.7 88.4 84.0 290.0
02/05 16:30 30.8 31 9.82 11.7 9 19 1012.1 0 21.3 23.1 36.2 95.2 92.5 320.0
02/05 16:20 30.5 28 8.73 10.4 7 9 1012.1 0 19.1 21.7 32.8 86.0 81.1 279.9
02/05 16:10 30.1 30 9.15 10.6 11 15 1012 0 20.0 22.4 34.3 90.1 86.0 297.1
02/05 16:00 30.3 29 8.94 10.3 11 19 1012 0 19.5 22.0 33.6 88.0 83.6 288.4
02/05 15:50 31.3 29 9.43 11.1 11 13 1012 0 20.5 22.4 34.7 91.2 87.8 303.3
02/05 15:40 29.7 30 8.95 10.7 9 11 1012.1 0 19.6 22.2 33.8 88.8 84.3 290.9
02/05 15:30 29.8 30 9 10.4 13 19 1012.1 0 19.7 22.2 34.0 89.1 84.7 292.5
02/05 15:20 31.2 28 9.06 10.5 13 15 1012.1 0 19.7 22.0 33.6 88.1 83.9 289.8
02/05 15:10 31.3 29 9.43 11.1 13 17 1012 0 20.5 22.4 34.7 91.2 87.8 303.3
02/05 15:00 31.1 28 9.01 10.4 17 24 1012 0 19.6 21.9 33.5 87.8 83.5 288.3
02/05 14:50 31.5 29 9.54 11.3 19 20 1012 0 20.7 22.5 35.0 92.0 88.7 306.7
02/05 14:40 31.1 28 9.01 10.4 9 17 1012.1 0 19.6 21.9 33.5 87.8 83.5 288.3
02/05 14:30 31.3 28 9.11 10.6 17 24 1012 0 19.8 22.0 33.7 88.5 84.3 291.3
02/05 14:20 30.9 27 8.6 10.2 15 19 1012.1 0 18.8 21.5 32.2 84.5 79.4 273.8
02/05 14:10 31.1 28 9.01 10.4 13 20 1012.2 0 19.6 21.9 33.5 87.8 83.5 288.3
02/05 14:00 29.7 30 8.95 10.3 11 19 1012.3 0 19.6 22.2 33.8 88.8 84.3 291.0
02/05 13:50 30.6 29 9.09 10.5 11 15 1012.5 0 19.8 22.2 33.9 89.1 84.9 293.1
02/05 13:40 30.3 30 9.25 11.2 9 13 1012.6 0 20.2 22.5 34.6 90.8 86.9 300.3
02/05 13:30 29.7 31 9.25 10.8 9 20 1012.9 0 20.2 22.6 34.9 91.5 87.6 302.5
02/05 13:20 28.9 31 8.86 10.5 11 13 1013 0 19.4 22.3 33.9 88.9 84.2 290.5
02/05 13:10 29.5 30 8.86 10.1 13 15 1013.2 0 19.4 22.2 33.7 88.3 83.6 288.5
02/05 13:00 31 28 8.96 10.4 15 20 1013.4 0 19.5 21.9 33.4 87.6 83.2 287.1
02/05 12:50 31.2 28 9.06 10.5 15 17 1013.6 0 19.7 22.0 33.6 88.3 84.0 290.2
02/05 12:40 30.7 29 9.13 10.6 7 9 1013.7 0 19.9 22.2 34.1 89.4 85.3 294.6
02/05 12:30 30.3 30 9.25 10.8 13 22 1013.9 0 20.2 22.5 34.6 90.9 87.0 300.6
02/05 12:20 29.6 30 8.9 10.6 17 19 1014.1 0 19.5 22.2 33.8 88.6 84.0 289.9
02/05 12:10 30.5 29 9.04 10.9 24 28 1014.1 0 19.7 22.2 33.9 88.9 84.6 292.0
02/05 12:00 30.2 30 9.2 10.7 17 28 1014.4 0 20.1 22.5 34.5 90.6 86.6 299.2
02/05 11:50 30.4 29 8.99 10.8 13 15 1014.6 0 19.6 22.2 33.8 88.6 84.2 290.6
02/05 11:40 30.1 32 9.76 11.6 19 22 1014.6 0 21.2 23.3 36.4 95.7 92.9 321.1
02/05 11:30 29.8 33 9.9 11.8 15 28 1014.8 0 21.5 23.5 37.1 97.4 94.8 327.8
02/05 11:20 28.6 30 8.43 9.3 17 19 1015 0 18.5 21.8 32.7 85.6 80.0 275.7
02/05 11:10 28.8 33 9.38 11.3 7 9 1015.1 0 20.5 23.1 35.8 93.9 90.2 311.5
02/05 11:00 29.2 35 10.16 12.2 11 20 1015.3 0 22.1 24.1 38.2 100.5 98.5 340.6
02/05 10:50 29.1 38 10.98 13.7 15 19 1015.4 0 23.8 25.3 41.2 108.3 108.0 374.0
02/05 10:40 28.6 39 10.96 13.3 11 13 1015.4 0 23.8 25.4 41.3 108.8 108.5 375.5
02/05 10:30 28.4 41 11.4 13.9 9 20 1015.5 0 24.7 26.1 43.0 113.3 114.0 394.7
02/05 10:20 27.9 42 11.36 13.8 11 17 1015.7 0 24.7 26.2 43.2 113.6 114.2 395.5
02/05 10:10 27.2 42 10.93 13.5 11 13 1015.7 0 23.8 25.7 42.0 110.4 110.1 380.9
02/05 10:00 27 43 11.07 13.4 9 15 1015.8 0 24.1 26.0 42.6 112.1 112.0 387.8
02/05 09:50 26.5 43 10.76 13.2 4 6 1015.8 0 23.5 25.7 41.7 109.7 109.0 377.1
02/05 09:40 25.8 44 10.59 12.9 11 15 1015.8 0 23.2 25.6 41.5 109.0 107.9 373.2
02/05 09:30 24.9 44 10.07 11.8 4 11 1016 0 22.1 25.1 40.0 105.2 102.9 355.5

Last Refresh: 03-May-2026 02:06:37

Bureau of Meteorology